Time;durP1;ratioP1;P1;durP2;ratioP2;P2;SDS_P1;SDS_P2;PMS_P1;PMS_P2;Temp;Humidity;BMP_temperature;BMP_pressure;BME280_temperature;BME280_humidity;BME280_pressure;Samples;Min_cycle;Max_cycle;Signal;HPM_P1;HPM_P2
2023/01/08 00:00:23;;;;;;;9.30;6.35;;;;;;;15.69;57.13;97357.75;5041890;28;20025;-26
2023/01/08 00:02:50;;;;;;;10.05;7.07;;;;;;;15.66;57.32;97369.56;5042984;28;20029;-26
2023/01/08 00:05:15;;;;;;;9.35;6.53;;;;;;;15.63;57.27;97359.50;5031006;28;20446;-27
2023/01/08 00:07:40;;;;;;;9.10;6.85;;;;;;;15.65;57.25;97368.03;5035796;28;20025;-26
2023/01/08 00:10:06;;;;;;;10.57;6.45;;;;;;;15.78;56.96;97355.13;5035710;28;20173;-26
2023/01/08 00:12:33;;;;;;;7.82;6.07;;;;;;;15.68;57.31;97362.47;5047731;28;20045;-26
2023/01/08 00:14:58;;;;;;;9.38;6.13;;;;;;;15.61;57.53;97357.19;5036447;28;20029;-26
2023/01/08 00:17:24;;;;;;;9.25;6.20;;;;;;;15.52;57.81;97350.81;5035496;28;20033;-26
2023/01/08 00:19:49;;;;;;;7.82;5.82;;;;;;;15.69;57.34;97350.34;5041587;28;20457;-26
2023/01/08 00:22:15;;;;;;;10.60;6.55;;;;;;;15.66;57.41;97347.69;5043039;28;20024;-26
2023/01/08 00:24:40;;;;;;;7.50;6.05;;;;;;;15.68;57.26;97348.78;5048560;28;20021;-26
2023/01/08 00:27:06;;;;;;;7.80;5.80;;;;;;;15.67;57.32;97349.22;5035281;28;20372;-26
2023/01/08 00:29:31;;;;;;;8.85;5.70;;;;;;;15.73;57.22;97342.00;5035284;28;20461;-26
2023/01/08 00:31:57;;;;;;;8.38;5.68;;;;;;;15.79;57.01;97345.72;5035701;28;20029;-26
2023/01/08 00:34:22;;;;;;;7.70;5.80;;;;;;;15.75;57.28;97339.59;5042075;28;20017;-26
2023/01/08 00:36:48;;;;;;;7.78;6.13;;;;;;;15.68;57.45;97346.06;5043472;28;20035;-26
2023/01/08 00:39:13;;;;;;;7.68;5.15;;;;;;;15.70;57.30;97340.91;5053246;28;20039;-26
2023/01/08 00:41:43;;;;;;;9.38;6.15;;;;;;;15.74;57.25;97341.56;5055261;28;20025;-26
2023/01/08 00:44:08;;;;;;;6.88;5.40;;;;;;;15.72;57.31;97329.53;5049606;28;20045;-26
2023/01/08 00:46:34;;;;;;;8.90;5.38;;;;;;;15.66;57.58;97331.28;5047097;28;20109;-26
2023/01/08 00:49:00;;;;;;;7.90;5.55;;;;;;;15.77;57.03;97329.75;5054702;28;20483;-25
2023/01/08 00:51:25;;;;;;;7.00;5.30;;;;;;;15.78;57.18;97338.72;5042824;28;20021;-26
2023/01/08 00:53:51;;;;;;;7.18;5.80;;;;;;;15.69;57.42;97342.13;5034837;28;20029;-26
2023/01/08 00:56:16;;;;;;;6.65;5.72;;;;;;;15.71;57.17;97349.88;5034699;28;20025;-27
2023/01/08 00:58:43;;;;;;;8.18;5.50;;;;;;;15.67;57.45;97349.22;5048085;28;20045;-26
2023/01/08 01:01:12;;;;;;;7.75;5.55;;;;;;;15.66;57.57;97353.16;5034772;28;20032;-25
2023/01/08 01:03:38;;;;;;;5.93;4.88;;;;;;;15.76;57.15;97346.59;5041246;28;20484;-27
2023/01/08 01:06:05;;;;;;;7.28;5.45;;;;;;;15.79;57.14;97348.47;5041646;28;20033;-26
2023/01/08 01:08:32;;;;;;;7.30;5.25;;;;;;;15.79;57.09;97348.47;5023475;28;20100;-26
2023/01/08 01:10:57;;;;;;;8.18;5.30;;;;;;;15.76;57.14;97347.38;5054020;28;20361;-26
2023/01/08 01:13:23;;;;;;;6.70;5.32;;;;;;;15.74;57.17;97360.69;5040129;28;20041;-26
2023/01/08 01:15:58;;;;;;;7.22;5.00;;;;;;;15.76;57.13;97369.25;5054219;28;20028;-26
2023/01/08 01:18:24;;;;;;;8.10;5.57;;;;;;;15.71;57.39;97366.28;5034337;28;20036;-27
2023/01/08 01:20:50;;;;;;;6.50;4.53;;;;;;;15.72;57.28;97362.34;5034457;28;20021;-26
2023/01/08 01:23:15;;;;;;;6.45;4.93;;;;;;;15.67;57.48;97362.91;5034602;28;20052;-26
2023/01/08 01:25:41;;;;;;;6.05;5.10;;;;;;;15.60;57.68;97361.13;5051729;28;20052;-26
2023/01/08 01:28:06;;;;;;;7.22;4.93;;;;;;;15.63;57.51;97352.06;5043649;28;20025;-26
2023/01/08 01:30:32;;;;;;;7.00;5.00;;;;;;;15.57;57.79;97361.25;5034276;28;20108;-26
2023/01/08 01:32:57;;;;;;;7.40;5.10;;;;;;;15.61;57.53;97365.41;5033921;28;20033;-26
2023/01/08 01:35:23;;;;;;;6.60;4.97;;;;;;;15.67;57.58;97355.47;5047481;28;20029;-26
2023/01/08 01:37:48;;;;;;;7.10;4.85;;;;;;;15.73;57.17;97356.44;5036660;28;20100;-26
2023/01/08 01:40:14;;;;;;;8.35;5.40;;;;;;;15.72;57.32;97357.63;5048345;28;20059;-27
2023/01/08 01:42:40;;;;;;;8.40;5.43;;;;;;;15.68;57.35;97350.75;5053287;28;20469;-26
2023/01/08 01:45:35;;;;;;;7.28;5.07;;;;;;;15.69;57.12;97358.53;5039178;28;20354;-26
2023/01/08 01:48:10;;;;;;;6.78;4.93;;;;;;;15.66;57.26;97353.16;5016921;28;20047;-26
2023/01/08 01:50:40;;;;;;;6.45;4.65;;;;;;;15.67;57.31;97339.06;5022894;28;20048;-25
2023/01/08 01:53:12;;;;;;;7.80;4.97;;;;;;;15.62;57.43;97347.03;5040277;28;20017;-26
2023/01/08 01:55:41;;;;;;;7.68;5.13;;;;;;;15.66;57.32;97348.47;5023317;28;20017;-25
2023/01/08 01:58:22;;;;;;;6.25;4.50;;;;;;;15.63;57.39;97348.56;5052608;28;20029;-26
2023/01/08 02:00:48;;;;;;;7.32;5.80;;;;;;;15.68;57.28;97348.03;5033875;28;20477;-26
2023/01/08 02:03:15;;;;;;;6.80;4.63;;;;;;;15.59;57.34;97353.38;5046891;28;20053;-26
2023/01/08 02:06:14;;;;;;;6.55;4.70;;;;;;;15.64;57.23;97350.88;5033838;28;20509;-26
2023/01/08 02:09:09;;;;;;;6.65;4.30;;;;;;;15.66;57.24;97351.19;5015899;28;20029;-26
2023/01/08 02:11:47;;;;;;;6.00;4.50;;;;;;;15.60;57.44;97352.16;5043963;28;20091;-26
2023/01/08 02:14:18;;;;;;;5.68;4.43;;;;;;;15.68;57.25;97356.22;5047078;28;20033;-25
2023/01/08 02:16:54;;;;;;;5.53;4.18;;;;;;;15.70;56.99;97349.09;5053602;28;20530;-28
2023/01/08 02:19:40;;;;;;;6.40;4.60;;;;;;;15.55;57.43;97344.53;5039960;28;20029;-27
2023/01/08 02:22:52;;;;;;;7.72;4.20;;;;;;;15.61;57.08;97340.78;5053376;28;20031;-26
2023/01/08 02:25:27;;;;;;;6.13;4.13;;;;;;;15.65;57.07;97332.50;5033354;28;20052;-26
2023/01/08 02:27:55;;;;;;;5.75;3.85;;;;;;;15.64;57.14;97337.19;5038611;28;20029;-25
2023/01/08 02:30:21;;;;;;;5.60;3.90;;;;;;;15.71;56.88;97336.19;5042059;28;20651;-26
2023/01/08 02:32:47;;;;;;;6.60;4.45;;;;;;;15.70;56.87;97335.44;5033221;28;20025;-26
2023/01/08 02:35:12;;;;;;;6.07;4.05;;;;;;;15.60;57.27;97338.50;5045260;28;20060;-26
2023/01/08 02:37:39;;;;;;;5.75;4.07;;;;;;;15.57;57.33;97333.91;5040098;28;20033;-26
2023/01/08 02:40:46;;;;;;;4.45;3.70;;;;;;;15.62;57.14;97319.69;5040865;28;20064;-26
2023/01/08 02:43:19;;;;;;;6.75;4.63;;;;;;;15.58;57.30;97313.59;4925870;29;20201;-25
2023/01/08 02:45:57;;;;;;;5.97;3.95;;;;;;;15.59;57.61;97323.28;4915480;29;20043;-26
2023/01/08 02:48:36;;;;;;;5.78;4.05;;;;;;;15.54;57.52;97318.34;4928270;29;20034;-26
2023/01/08 02:51:14;;;;;;;6.45;4.05;;;;;;;15.64;57.33;97320.03;4934268;29;20440;-26
2023/01/08 02:53:46;;;;;;;6.32;4.00;;;;;;;15.70;57.03;97321.00;4933689;29;20023;-26
2023/01/08 02:56:16;;;;;;;5.47;3.95;;;;;;;15.75;56.99;97312.25;4934078;29;20039;-25
2023/01/08 02:58:46;;;;;;;7.35;4.43;;;;;;;15.70;57.25;97321.75;4933820;29;20083;-26
2023/01/08 03:01:15;;;;;;;6.72;4.68;;;;;;;15.62;57.29;97314.97;4934039;29;20035;-26
2023/01/08 03:03:46;;;;;;;6.00;4.25;;;;;;;15.68;57.23;97317.94;4933710;29;20023;-25
2023/01/08 03:06:15;;;;;;;7.07;4.07;;;;;;;15.63;57.37;97308.31;4933822;29;20035;-25
2023/01/08 03:08:42;;;;;;;6.75;4.13;;;;;;;15.71;57.17;97306.09;4933922;29;20104;-25
2023/01/08 03:11:14;;;;;;;6.68;3.85;;;;;;;15.72;57.05;97302.19;4933456;29;20494;-26
2023/01/08 03:13:44;;;;;;;5.40;4.30;;;;;;;15.63;57.42;97304.81;4954717;28;20059;-26
2023/01/08 03:16:16;;;;;;;6.55;4.15;;;;;;;15.62;57.61;97306.78;4965911;28;20061;-26
2023/01/08 03:18:48;;;;;;;5.78;4.18;;;;;;;15.68;57.19;97302.31;5062844;28;20459;-26
2023/01/08 03:21:15;;;;;;;6.30;3.75;;;;;;;15.78;56.90;97297.69;5068794;28;20466;-26
2023/01/08 03:23:43;;;;;;;7.82;4.22;;;;;;;15.67;57.13;97300.78;5063739;28;20111;-25
2023/01/08 03:26:12;;;;;;;7.65;4.22;;;;;;;15.69;57.28;97290.16;5054309;28;20044;-26
2023/01/08 03:28:43;;;;;;;7.03;4.30;;;;;;;15.69;57.30;97289.41;5055276;28;20025;-27
2023/01/08 03:31:13;;;;;;;6.18;4.05;;;;;;;15.71;57.41;97289.69;5066015;28;20017;-25
2023/01/08 03:33:40;;;;;;;5.10;4.10;;;;;;;15.72;57.30;97286.53;5052584;28;20025;-25
2023/01/08 03:36:07;;;;;;;6.05;4.00;;;;;;;15.74;57.14;97286.09;5052905;28;20049;-26
2023/01/08 03:38:39;;;;;;;4.65;3.67;;;;;;;15.79;57.05;97282.81;5069249;28;20028;-25
2023/01/08 03:41:13;;;;;;;6.03;3.40;;;;;;;15.73;57.08;97281.81;5064101;28;20024;-25
2023/01/08 03:43:39;;;;;;;7.30;3.72;;;;;;;15.80;56.96;97267.94;5060115;28;20028;-26
2023/01/08 03:46:15;;;;;;;5.32;3.85;;;;;;;15.77;57.00;97275.06;5065381;28;20104;-26
2023/01/08 03:48:42;;;;;;;5.97;3.60;;;;;;;15.81;56.94;97277.69;5062383;28;20021;-26
2023/01/08 03:51:09;;;;;;;5.00;3.60;;;;;;;15.68;57.31;97274.97;5075944;28;20111;-26
2023/01/08 03:53:34;;;;;;;5.55;3.90;;;;;;;15.72;57.22;97272.84;5071544;28;20020;-26
2023/01/08 03:56:00;;;;;;;5.63;3.90;;;;;;;15.75;57.14;97279.44;5056295;28;20028;-26
2023/01/08 03:58:25;;;;;;;5.50;3.97;;;;;;;15.71;57.16;97278.75;5068945;28;20017;-26
2023/01/08 04:00:51;;;;;;;5.68;4.10;;;;;;;15.69;57.18;97283.94;5065674;28;20024;-26
2023/01/08 04:03:17;;;;;;;5.35;3.67;;;;;;;15.69;57.17;97278.47;5059158;28;20368;-27
2023/01/08 04:05:42;;;;;;;4.93;3.60;;;;;;;15.74;57.07;97277.91;5065572;28;20058;-26
2023/01/08 04:08:08;;;;;;;6.00;3.55;;;;;;;15.74;57.20;97277.91;5059493;28;20075;-26
2023/01/08 04:10:34;;;;;;;4.57;3.78;;;;;;;15.65;57.25;97277.81;5055474;28;20373;-26
2023/01/08 04:12:59;;;;;;;5.00;3.40;;;;;;;15.71;57.13;97287.72;5047321;28;20481;-26
2023/01/08 04:15:25;;;;;;;5.90;3.70;;;;;;;15.65;57.41;97280.53;5035824;28;20032;-26
2023/01/08 04:17:52;;;;;;;4.90;3.50;;;;;;;15.67;57.19;97283.59;5038330;28;20017;-26
2023/01/08 04:20:18;;;;;;;5.80;4.00;;;;;;;15.74;57.09;97286.09;5045027;28;20036;-25
2023/01/08 04:22:43;;;;;;;5.10;3.45;;;;;;;15.70;57.07;97286.19;5052206;28;20025;-26
2023/01/08 04:25:09;;;;;;;5.38;3.65;;;;;;;15.76;56.95;97281.72;5047025;28;20013;-26
2023/01/08 04:27:34;;;;;;;5.38;3.40;;;;;;;15.71;56.91;97278.75;5038938;28;20021;-26
2023/01/08 04:30:00;;;;;;;4.07;3.28;;;;;;;15.79;56.80;97274.63;5045237;28;20335;-26
2023/01/08 04:32:25;;;;;;;3.63;2.97;;;;;;;15.73;57.03;97273.63;5035237;28;20021;-26
2023/01/08 04:34:51;;;;;;;5.38;3.55;;;;;;;15.73;56.85;97271.66;5045272;28;20021;-26
2023/01/08 04:37:16;;;;;;;3.95;3.28;;;;;;;15.75;56.96;97269.25;5051803;28;20031;-26
2023/01/08 04:39:41;;;;;;;5.22;3.70;;;;;;;15.70;57.17;97266.31;5045105;28;20013;-26
2023/01/08 04:42:07;;;;;;;4.60;3.25;;;;;;;15.73;56.78;97268.91;5054733;28;20476;-26
2023/01/08 04:44:33;;;;;;;6.13;4.63;;;;;;;15.70;56.98;97266.31;5054879;28;20026;-26
2023/01/08 04:46:58;;;;;;;7.85;5.13;;;;;;;15.71;56.98;97262.34;5038126;28;20075;-26
2023/01/08 04:49:24;;;;;;;8.85;6.30;;;;;;;15.68;57.10;97252.31;5044874;28;20082;-26
2023/01/08 04:51:49;;;;;;;7.15;5.40;;;;;;;15.78;56.74;97260.19;5038478;28;20024;-28
2023/01/08 04:54:14;;;;;;;9.75;5.97;;;;;;;15.74;56.71;97256.00;5044039;28;20035;-26
2023/01/08 04:56:40;;;;;;;7.22;5.35;;;;;;;15.72;56.97;97258.41;5038398;28;20374;-26
2023/01/08 04:59:05;;;;;;;7.28;4.53;;;;;;;15.69;56.92;97257.34;5034560;28;20025;-26
2023/01/08 05:01:31;;;;;;;7.13;4.78;;;;;;;15.71;57.07;97263.13;5034595;28;20021;-26
2023/01/08 05:03:59;;;;;;;8.95;5.32;;;;;;;15.69;56.90;97253.84;5043540;28;20021;-26
2023/01/08 05:06:25;;;;;;;6.32;4.70;;;;;;;15.71;56.83;97260.38;5041005;28;20033;-26
2023/01/08 05:08:51;;;;;;;6.32;5.10;;;;;;;15.68;56.82;97269.50;5044968;28;20021;-26
2023/01/08 05:11:16;;;;;;;7.80;4.90;;;;;;;15.75;56.74;97252.06;5050736;28;20050;-26
2023/01/08 05:13:42;;;;;;;6.95;4.97;;;;;;;15.72;56.63;97261.91;5053732;28;20538;-26
2023/01/08 05:16:08;;;;;;;5.93;4.53;;;;;;;15.74;56.59;97250.53;5023290;28;20017;-26
2023/01/08 05:18:33;;;;;;;5.78;4.20;;;;;;;15.70;56.82;97247.19;5045120;28;20021;-26
2023/01/08 05:21:00;;;;;;;7.22;4.47;;;;;;;15.72;56.62;97242.00;5036584;28;20031;-26
2023/01/08 05:23:26;;;;;;;6.55;4.22;;;;;;;15.64;56.92;97236.03;5054147;28;20013;-27
2023/01/08 05:25:51;;;;;;;6.95;4.40;;;;;;;15.69;56.69;97238.22;5051822;28;20036;-26
2023/01/08 05:28:17;;;;;;;6.95;4.70;;;;;;;15.64;56.87;97238.75;5034960;28;20091;-26
2023/01/08 05:30:42;;;;;;;7.60;4.32;;;;;;;15.70;56.70;97236.25;5047442;28;20025;-26
2023/01/08 05:33:08;;;;;;;4.97;3.78;;;;;;;15.68;56.65;97242.16;5042454;28;20028;-26
2023/01/08 05:35:33;;;;;;;6.25;3.92;;;;;;;15.67;56.77;97243.34;5038576;28;20457;-26
2023/01/08 05:37:59;;;;;;;6.88;4.43;;;;;;;15.61;56.84;97236.13;5034050;28;20476;-26
2023/01/08 05:40:25;;;;;;;4.93;3.58;;;;;;;15.63;56.73;97236.47;5036206;28;20067;-26
2023/01/08 05:42:50;;;;;;;5.13;3.47;;;;;;;15.71;56.37;97243.22;5053843;28;20028;-27
2023/01/08 05:45:15;;;;;;;4.88;3.35;;;;;;;15.69;56.47;97237.44;5053613;28;20074;-26
2023/01/08 05:47:41;;;;;;;3.72;3.20;;;;;;;15.64;56.54;97236.03;5053587;28;20025;-26
2023/01/08 05:50:07;;;;;;;6.22;3.13;;;;;;;15.63;56.71;97237.22;5040353;28;20037;-25
2023/01/08 05:52:32;;;;;;;6.25;3.90;;;;;;;15.65;56.56;97237.56;5053496;28;20021;-26
2023/01/08 05:54:59;;;;;;;4.43;3.28;;;;;;;15.65;56.55;97234.06;5038257;28;20396;-25
2023/01/08 05:57:25;;;;;;;5.60;3.78;;;;;;;15.63;56.50;97226.28;5041990;28;20449;-26
2023/01/08 05:59:50;;;;;;;4.57;3.22;;;;;;;15.68;56.34;97235.91;5039683;28;20464;-26
2023/01/08 06:02:16;;;;;;;4.82;3.33;;;;;;;15.65;56.36;97231.31;5039289;28;20024;-26
2023/01/08 06:04:42;;;;;;;4.05;3.28;;;;;;;15.67;56.21;97221.47;5053133;28;20056;-26
2023/01/08 06:07:08;;;;;;;4.60;3.08;;;;;;;15.71;56.24;97227.56;5038792;28;20440;-26
2023/01/08 06:09:33;;;;;;;4.68;3.30;;;;;;;15.62;56.43;97230.22;5033473;28;20052;-26
2023/01/08 06:11:58;;;;;;;4.95;3.63;;;;;;;15.61;56.53;97225.19;5048842;28;20053;-26
2023/01/08 06:14:27;;;;;;;4.88;3.13;;;;;;;15.59;56.50;97233.81;5053076;28;20037;-26
2023/01/08 06:16:53;;;;;;;5.35;3.83;;;;;;;15.64;56.30;97232.53;5038193;28;20470;-26
2023/01/08 06:19:18;;;;;;;4.15;3.25;;;;;;;15.68;56.18;97238.66;5033454;28;20068;-26
2023/01/08 06:21:44;;;;;;;3.85;3.20;;;;;;;15.70;56.01;97239.72;5033362;28;20033;-26
2023/01/08 06:24:09;;;;;;;4.63;3.25;;;;;;;15.69;56.17;97245.66;5015859;28;20408;-26
2023/01/08 06:26:35;;;;;;;4.35;3.30;;;;;;;15.66;56.26;97244.56;5052907;28;20025;-26
2023/01/08 06:29:01;;;;;;;4.88;3.00;;;;;;;15.68;56.26;97239.41;5049532;28;20078;-26
2023/01/08 06:31:26;;;;;;;5.60;3.05;;;;;;;15.69;56.17;97242.91;5046905;28;20071;-26
2023/01/08 06:33:51;;;;;;;4.55;3.35;;;;;;;15.62;56.33;97243.13;5033347;28;20457;-26
2023/01/08 06:36:17;;;;;;;4.57;3.55;;;;;;;15.61;56.05;97241.59;5033353;28;20025;-26
2023/01/08 06:38:42;;;;;;;4.38;2.95;;;;;;;15.66;56.23;97241.06;5045915;28;20029;-26
2023/01/08 06:41:09;;;;;;;5.03;3.17;;;;;;;15.70;56.16;97228.03;5033540;28;20025;-26
2023/01/08 06:43:36;;;;;;;5.03;2.80;;;;;;;15.65;56.14;97237.56;5046105;28;20031;-26
2023/01/08 06:46:03;;;;;;;5.50;3.42;;;;;;;15.63;56.28;97239.19;5039985;28;20376;-26
2023/01/08 06:48:28;;;;;;;4.10;3.10;;;;;;;15.62;56.31;97226.72;5052856;28;20449;-26
2023/01/08 06:50:55;;;;;;;4.85;3.15;;;;;;;15.63;56.19;97228.25;5021911;28;20047;-25
2023/01/08 06:53:20;;;;;;;4.35;3.40;;;;;;;15.63;56.14;97236.47;5052885;28;20125;-26
2023/01/08 06:55:46;;;;;;;5.10;3.60;;;;;;;15.68;56.15;97230.44;5026998;28;20521;-26
2023/01/08 06:58:11;;;;;;;4.85;3.20;;;;;;;15.70;55.84;97222.56;5046679;28;20090;-26
2023/01/08 07:00:38;;;;;;;6.60;3.50;;;;;;;15.70;55.78;97228.03;5040566;28;20021;-26
2023/01/08 07:17:27;;;;;;;3.58;2.70;;;;;;;15.57;55.84;97230.03;5053297;28;20087;-26
2023/01/08 07:19:53;;;;;;;4.72;3.05;;;;;;;15.59;55.70;97231.09;5055709;28;20114;-27
2023/01/08 07:22:19;;;;;;;4.65;3.28;;;;;;;15.66;55.76;97236.34;5043501;28;20500;-26
2023/01/08 07:24:45;;;;;;;4.20;2.60;;;;;;;15.63;55.76;97237.22;5055819;28;20059;-26
2023/01/08 07:27:11;;;;;;;3.40;2.70;;;;;;;15.63;55.77;97230.97;5056114;28;20033;-25
2023/01/08 07:29:37;;;;;;;4.03;2.80;;;;;;;15.61;55.69;97241.59;5050570;28;20033;-26
2023/01/08 07:32:02;;;;;;;3.47;2.50;;;;;;;15.69;55.52;97231.97;5026993;28;20032;-25
2023/01/08 07:34:28;;;;;;;4.40;2.97;;;;;;;15.65;55.67;97228.59;5049542;28;20428;-26
2023/01/08 07:36:54;;;;;;;4.22;2.60;;;;;;;15.62;55.64;97232.19;5048232;28;20075;-26
2023/01/08 07:39:19;;;;;;;4.10;2.35;;;;;;;15.61;55.73;97220.50;5050811;28;20092;-26
2023/01/08 07:41:45;;;;;;;4.25;2.60;;;;;;;15.66;55.85;97221.91;5036314;28;20071;-26
2023/01/08 07:44:10;;;;;;;2.88;2.30;;;;;;;15.59;55.96;97222.13;5049491;28;20029;-26
2023/01/08 07:46:36;;;;;;;4.30;2.42;;;;;;;15.64;55.78;97219.63;5048486;28;20029;-26
2023/01/08 07:49:01;;;;;;;3.22;2.38;;;;;;;15.63;55.62;97222.78;5050374;28;20022;-26
2023/01/08 07:51:28;;;;;;;3.75;2.45;;;;;;;15.60;55.84;97229.13;5036015;28;20428;-27
2023/01/08 07:53:55;;;;;;;5.45;2.63;;;;;;;15.67;55.80;97220.72;5035422;28;20034;-25
2023/01/08 07:56:21;;;;;;;3.45;2.42;;;;;;;15.63;55.96;97223.56;5040884;28;20021;-27
2023/01/08 07:58:47;;;;;;;4.18;2.65;;;;;;;15.61;56.05;97217.75;5035621;28;20029;-27
2023/01/08 08:01:14;;;;;;;3.92;2.63;;;;;;;15.61;56.02;97222.44;5038336;28;20075;-27
2023/01/08 08:03:40;;;;;;;3.90;2.70;;;;;;;15.65;55.81;97228.59;5037890;28;20104;-26
2023/01/08 08:06:06;;;;;;;4.65;2.92;;;;;;;15.65;55.96;97231.31;5035573;28;20026;-25
2023/01/08 08:08:32;;;;;;;4.15;3.20;;;;;;;15.64;55.92;97224.31;5038028;28;20014;-25
2023/01/08 08:10:57;;;;;;;3.65;2.88;;;;;;;15.64;55.87;97229.78;5035155;28;20021;-26
2023/01/08 08:13:23;;;;;;;3.67;2.70;;;;;;;15.63;56.07;97228.25;5051423;28;20052;-25
2023/01/08 08:15:48;;;;;;;3.63;3.13;;;;;;;15.60;56.19;97223.66;5035665;28;20029;-26
2023/01/08 08:18:14;;;;;;;3.72;2.90;;;;;;;15.69;55.96;97231.97;5042317;28;20053;-26
2023/01/08 08:20:39;;;;;;;4.45;3.00;;;;;;;15.67;55.88;97228.91;5033202;28;20045;-26
2023/01/08 08:23:07;;;;;;;4.38;3.08;;;;;;;15.67;56.28;97217.97;5048249;28;20021;-28
2023/01/08 08:25:34;;;;;;;6.53;3.03;;;;;;;15.62;56.07;97224.75;5052925;28;20074;-25
2023/01/08 08:28:01;;;;;;;4.97;2.95;;;;;;;15.65;56.12;97231.31;5050743;28;20029;-26
2023/01/08 08:30:28;;;;;;;5.53;3.58;;;;;;;15.51;56.44;97220.81;5042588;28;20039;-26
2023/01/08 08:32:54;;;;;;;5.55;3.70;;;;;;;15.42;56.89;97219.50;5038042;28;20125;-26
2023/01/08 08:35:20;;;;;;;4.95;3.50;;;;;;;15.46;56.88;97219.38;5033794;28;20493;-26
2023/01/08 08:37:46;;;;;;;5.20;3.45;;;;;;;15.38;57.07;97212.63;5038644;28;20020;-27
2023/01/08 08:40:12;;;;;;;4.63;3.72;;;;;;;15.38;57.00;97212.63;5036159;28;20497;-26
2023/01/08 08:42:37;;;;;;;5.00;3.63;;;;;;;15.31;57.29;97210.88;5039392;28;20425;-26
2023/01/08 08:45:03;;;;;;;5.75;3.40;;;;;;;15.44;56.97;97211.63;5036609;28;20078;-26
2023/01/08 08:47:29;;;;;;;3.33;2.72;;;;;;;15.44;57.07;97210.88;5024237;28;20025;-26
2023/01/08 08:49:54;;;;;;;4.55;3.05;;;;;;;15.51;56.84;97210.63;5032880;28;20033;-26
2023/01/08 08:52:20;;;;;;;4.05;3.13;;;;;;;15.54;56.80;97206.25;5032786;28;20052;-26
2023/01/08 08:54:45;;;;;;;6.78;3.03;;;;;;;15.51;56.85;97218.06;5036501;28;20029;-26
2023/01/08 08:57:11;;;;;;;4.50;2.90;;;;;;;15.47;56.65;97215.44;5032779;28;20025;-26
2023/01/08 08:59:36;;;;;;;4.15;2.83;;;;;;;15.53;56.80;97218.41;5033037;28;20025;-26
2023/01/08 09:02:02;;;;;;;3.70;2.78;;;;;;;15.41;57.29;97223.44;5042575;28;20032;-26
2023/01/08 09:04:35;;;;;;;3.80;2.65;;;;;;;15.49;56.98;97225.94;5051924;28;20753;-26
2023/01/08 09:07:00;;;;;;;3.78;2.97;;;;;;;15.57;56.87;97219.09;5032136;28;20043;-26
2023/01/08 09:09:27;;;;;;;4.50;2.90;;;;;;;15.53;56.98;97212.94;5034406;28;20025;-26
2023/01/08 09:11:54;;;;;;;3.50;3.08;;;;;;;15.58;56.87;97223.34;5048531;28;20099;-26
2023/01/08 09:14:20;;;;;;;4.32;2.92;;;;;;;15.45;57.09;97213.16;5032242;28;20426;-26
2023/01/08 09:16:46;;;;;;;3.63;2.85;;;;;;;15.43;57.59;97217.53;5030565;28;20106;-28
2023/01/08 09:19:12;;;;;;;4.30;2.80;;;;;;;15.40;57.78;97208.25;5032568;28;20045;-26
2023/01/08 09:21:37;;;;;;;4.47;3.00;;;;;;;15.46;57.62;97217.41;5039857;28;20479;-26
2023/01/08 09:24:03;;;;;;;4.18;2.90;;;;;;;15.36;58.02;97215.03;5041824;28;20018;-26
2023/01/08 09:26:29;;;;;;;5.35;2.85;;;;;;;15.35;58.42;97219.72;5035976;28;20021;-26
2023/01/08 09:28:57;;;;;;;3.50;2.80;;;;;;;15.21;58.87;97213.94;5033513;28;20029;-26
2023/01/08 09:31:23;;;;;;;5.30;2.88;;;;;;;15.22;58.88;97216.22;5033545;28;20036;-26
2023/01/08 09:33:49;;;;;;;4.72;3.10;;;;;;;15.03;59.78;97209.03;5033827;28;20087;-27
2023/01/08 09:36:17;;;;;;;4.30;2.20;;;;;;;15.15;59.78;97204.75;5042106;28;20053;-26
2023/01/08 09:38:43;;;;;;;5.18;2.38;;;;;;;15.39;58.56;97209.44;5039841;28;20468;-28
2023/01/08 09:41:18;;;;;;;3.70;2.20;;;;;;;15.44;58.60;97210.88;5040397;28;20025;-27
2023/01/08 09:43:47;;;;;;;4.00;2.50;;;;;;;15.26;59.35;97224.31;5035484;28;20029;-26
2023/01/08 09:46:15;;;;;;;4.05;2.30;;;;;;;15.16;59.76;97212.53;5033953;28;20095;-26
2023/01/08 09:48:42;;;;;;;4.32;2.03;;;;;;;15.25;59.61;97220.81;5042712;28;20056;-26
2023/01/08 09:51:12;;;;;;;3.22;1.90;;;;;;;15.32;59.29;97208.91;5035832;28;20059;-26
2023/01/08 09:53:37;;;;;;;2.95;2.05;;;;;;;15.41;58.99;97215.25;5046670;28;20095;-26
2023/01/08 09:56:09;;;;;;;4.55;2.50;;;;;;;15.46;58.57;97219.38;5032622;28;20469;-26
2023/01/08 09:58:42;;;;;;;2.43;2.07;;;;;;;15.44;58.52;97213.59;5038312;28;20033;-26
2023/01/08 10:01:12;;;;;;;2.97;2.10;;;;;;;15.52;58.42;97214.13;5053567;28;20063;-26
2023/01/08 10:03:44;;;;;;;5.15;2.47;;;;;;;15.38;58.86;97207.16;5050906;28;20324;-26
2023/01/08 10:06:12;;;;;;;6.03;3.57;;;;;;;15.46;58.55;97192.03;5043538;28;20025;-26
2023/01/08 10:08:39;;;;;;;5.40;3.05;;;;;;;15.44;58.68;97205.41;5039863;28;20029;-26
2023/01/08 10:11:06;;;;;;;5.88;3.47;;;;;;;15.55;58.31;97205.09;5042966;28;20037;-26
2023/01/08 10:13:33;;;;;;;6.70;3.78;;;;;;;15.43;58.69;97207.38;5033406;28;20029;-26
2023/01/08 10:15:59;;;;;;;6.00;3.55;;;;;;;15.44;59.03;97199.94;5033249;28;20450;-26
2023/01/08 10:18:27;;;;;;;6.38;3.85;;;;;;;15.31;59.42;97191.75;5046799;28;20055;-26
2023/01/08 10:20:53;;;;;;;6.40;3.22;;;;;;;15.51;58.51;97183.31;5027255;28;20440;-26
2023/01/08 10:23:21;;;;;;;5.40;3.70;;;;;;;15.56;58.46;97182.00;5039827;28;20052;-26
2023/01/08 10:25:48;;;;;;;4.82;3.22;;;;;;;15.52;58.58;97192.25;5053018;28;20028;-26
2023/01/08 10:28:22;;;;;;;6.28;3.65;;;;;;;15.55;58.61;97177.75;5047792;28;20041;-26
2023/01/08 10:30:50;;;;;;;4.00;3.22;;;;;;;15.41;59.04;97174.25;5031161;28;20029;-26
2023/01/08 10:33:23;;;;;;;5.38;3.15;;;;;;;15.53;58.69;97169.19;5034212;28;20366;-26
2023/01/08 10:36:05;;;;;;;4.90;3.50;;;;;;;15.56;58.58;97169.13;5039787;28;20036;-26
2023/01/08 10:38:43;;;;;;;3.88;3.03;;;;;;;15.46;59.18;97176.41;5033163;28;20025;-26
2023/01/08 10:41:12;;;;;;;6.35;3.45;;;;;;;15.44;59.14;97159.72;5016206;28;20109;-26
2023/01/08 10:43:52;;;;;;;4.25;2.92;;;;;;;15.48;59.10;97175.19;5033157;28;20129;-26
2023/01/08 10:46:22;;;;;;;4.00;2.78;;;;;;;15.37;59.30;97157.19;5025548;28;20115;-26
2023/01/08 10:48:52;;;;;;;3.92;2.78;;;;;;;15.33;59.65;97172.94;5054721;28;20039;-26
2023/01/08 10:51:22;;;;;;;4.15;2.53;;;;;;;15.10;60.12;97154.16;5046959;28;20099;-27
2023/01/08 10:53:48;;;;;;;3.67;2.40;;;;;;;15.12;60.45;97151.00;5047473;28;20108;-26
2023/01/08 10:56:21;;;;;;;4.35;2.50;;;;;;;15.18;60.18;97163.69;5034685;28;20155;-26
2023/01/08 10:58:47;;;;;;;4.13;2.60;;;;;;;15.24;59.96;97150.97;5034983;28;20033;-26
2023/01/08 11:01:21;;;;;;;4.68;2.70;;;;;;;15.34;59.47;97155.31;5047804;28;20120;-26
2023/01/08 11:03:51;;;;;;;3.20;2.40;;;;;;;15.22;59.95;97156.09;5052786;28;20052;-26
2023/01/08 11:06:30;;;;;;;4.20;2.63;;;;;;;15.20;59.84;97158.53;5021316;28;20037;-26
2023/01/08 11:09:12;;;;;;;4.50;2.42;;;;;;;15.32;59.54;97146.06;5034092;28;20413;-26
2023/01/08 11:11:38;;;;;;;4.80;2.70;;;;;;;15.28;59.37;97140.69;5047068;28;20020;-26
2023/01/08 11:14:15;;;;;;;4.65;2.65;;;;;;;15.28;59.28;97132.50;5054192;28;20688;-26
2023/01/08 11:16:41;;;;;;;3.35;2.50;;;;;;;15.26;59.22;97123.97;5040061;28;20041;-25
2023/01/08 11:19:24;;;;;;;2.60;2.17;;;;;;;14.78;60.38;97127.84;5043826;28;20088;-26
2023/01/08 11:22:01;;;;;;;3.83;2.47;;;;;;;15.07;59.65;97122.28;5034237;28;20064;-26
2023/01/08 11:24:29;;;;;;;4.50;2.45;;;;;;;15.12;59.46;97115.47;5051158;28;20036;-26
2023/01/08 11:27:14;;;;;;;3.25;2.50;;;;;;;15.18;59.30;97106.31;5038069;28;20033;-25
2023/01/08 11:29:52;;;;;;;4.15;2.50;;;;;;;15.21;59.32;97102.66;5022764;28;20485;-26
2023/01/08 11:32:59;;;;;;;3.38;2.20;;;;;;;15.27;59.05;97097.41;5038492;28;20025;-26
2023/01/08 11:35:35;;;;;;;2.97;2.20;;;;;;;15.40;58.65;97098.16;5035327;28;20060;-26
2023/01/08 11:38:02;;;;;;;4.30;2.40;;;;;;;15.15;59.32;97095.47;5039898;28;20090;-26
2023/01/08 11:40:30;;;;;;;5.13;2.35;;;;;;;15.07;59.61;97079.31;5040600;28;20440;-26
2023/01/08 11:43:03;;;;;;;2.85;2.00;;;;;;;15.33;58.76;97074.53;5047054;28;20481;-26
2023/01/08 11:45:50;;;;;;;3.35;1.95;;;;;;;15.29;58.73;97054.78;5033592;28;20025;-25
2023/01/08 11:48:46;;;;;;;2.72;2.00;;;;;;;15.09;59.24;97055.03;5037407;28;20028;-27
2023/01/08 11:51:30;;;;;;;3.05;1.63;;;;;;;15.22;59.03;97048.78;5041770;28;20036;-26
2023/01/08 11:54:03;;;;;;;3.33;2.40;;;;;;;15.10;59.30;97056.56;5033404;28;20033;-26